createdAt,value
2019-01-12T00:01:38.334Z,66.20
2019-01-12T00:06:28.421Z,66.20
2019-01-12T00:11:23.345Z,66.01
2019-01-12T00:16:13.156Z,64.14
2019-01-12T00:21:03.958Z,62.75
2019-01-12T00:25:54.845Z,63.25
2019-01-12T00:30:45.875Z,63.53
2019-01-12T00:35:36.393Z,64.36
2019-01-12T00:40:26.427Z,64.32
2019-01-12T00:45:17.300Z,65.44
2019-01-12T00:50:09.241Z,66.42
2019-01-12T00:55:00.203Z,67.02
2019-01-12T00:59:51.075Z,67.44
2019-01-12T01:04:41.812Z,68.04
2019-01-12T01:09:34.293Z,67.70
2019-01-12T01:14:26.032Z,67.53
2019-01-12T01:19:17.334Z,63.67
2019-01-12T01:24:08.464Z,63.67
2019-01-12T01:28:59.789Z,63.72
2019-01-12T01:33:50.091Z,64.39
2019-01-12T01:38:41.406Z,64.15
2019-01-12T01:43:33.002Z,63.57
2019-01-12T01:48:23.887Z,63.66
2019-01-12T01:53:15.422Z,63.88
2019-01-12T01:58:06.294Z,63.67
2019-01-12T02:02:57.059Z,63.10
2019-01-12T02:07:47.834Z,63.41
2019-01-12T02:12:38.909Z,63.74
2019-01-12T02:17:31.621Z,63.24
2019-01-12T02:22:23.387Z,63.25
2019-01-12T02:27:16.720Z,63.33
2019-01-12T02:32:07.308Z,63.18
2019-01-12T02:37:00.824Z,62.90
2019-01-12T02:41:52.055Z,63.07
2019-01-12T02:46:42.572Z,63.36
2019-01-12T02:51:35.118Z,62.71
2019-01-12T02:56:25.771Z,63.11
2019-01-12T03:01:16.102Z,62.90
2019-01-12T03:06:07.154Z,63.07
2019-01-12T03:10:56.875Z,63.80
2019-01-12T03:15:47.324Z,63.32
2019-01-12T03:20:37.849Z,62.77
2019-01-12T03:25:28.873Z,62.88
2019-01-12T03:30:22.613Z,63.73
2019-01-12T03:35:13.675Z,63.38
2019-01-12T03:40:06.884Z,66.17
2019-01-12T03:44:58.082Z,66.44
2019-01-12T03:49:48.911Z,66.53
2019-01-12T03:54:40.556Z,67.44
2019-01-12T03:59:31.776Z,67.34
2019-01-12T04:04:23.121Z,65.89
2019-01-12T04:09:13.921Z,65.63
2019-01-12T04:14:05.531Z,64.32
2019-01-12T04:19:28.182Z,63.79
2019-01-12T04:24:22.524Z,63.75
2019-01-12T04:29:14.572Z,64.30
2019-01-12T04:34:33.162Z,66.56
2019-01-12T04:39:27.223Z,66.48
2019-01-12T04:44:18.057Z,66.50
2019-01-12T04:49:33.526Z,65.44
2019-01-12T04:54:27.826Z,64.60
2019-01-12T04:59:19.856Z,64.33
2019-01-12T05:04:10.517Z,63.62
2019-01-12T05:09:01.297Z,63.28
2019-01-12T05:13:52.917Z,63.98
2019-01-12T05:18:44.223Z,65.22
2019-01-12T05:23:38.925Z,67.24
2019-01-12T05:28:29.968Z,67.55
2019-01-12T05:33:21.073Z,66.33
2019-01-12T05:38:14.840Z,63.75
2019-01-12T05:43:05.508Z,64.87
2019-01-12T05:47:56.337Z,63.95
2019-01-12T05:52:47.503Z,65.55
2019-01-12T05:57:39.849Z,66.91
2019-01-12T06:02:31.159Z,66.92
2019-01-12T06:07:21.665Z,67.64
2019-01-12T06:12:12.973Z,67.60
2019-01-12T06:17:03.821Z,67.32
2019-01-12T06:21:54.862Z,66.05
2019-01-12T06:26:45.914Z,67.26
2019-01-12T06:31:56.470Z,63.65
2019-01-12T06:36:47.797Z,66.87
2019-01-12T06:41:39.413Z,64.79
2019-01-12T06:46:29.667Z,69.19
2019-01-12T06:51:20.829Z,60.83
2019-01-12T06:56:11.610Z,60.83
2019-01-12T07:01:03.947Z,61.59
2019-01-12T07:06:06.623Z,62.83
2019-01-12T07:10:58.124Z,62.83
2019-01-12T07:15:47.719Z,62.15
2019-01-12T07:20:39.765Z,61.05
2019-01-12T07:25:31.116Z,60.22
2019-01-12T07:30:25.430Z,60.22
2019-01-12T07:35:16.930Z,59.62
2019-01-12T07:40:08.935Z,59.42
2019-01-12T07:45:01.014Z,59.47
2019-01-12T07:49:52.146Z,60.15
2019-01-12T07:54:42.900Z,59.43
2019-01-12T07:59:34.251Z,60.95
2019-01-12T08:04:36.613Z,59.24
2019-01-12T08:09:27.947Z,59.24
2019-01-12T08:14:18.721Z,58.72
2019-01-12T08:19:09.819Z,56.88
2019-01-12T08:24:00.656Z,55.37
2019-01-12T08:28:51.983Z,54.95
2019-01-12T08:33:43.010Z,55.69
2019-01-12T08:38:42.054Z,55.89
2019-01-12T08:43:38.193Z,53.91
2019-01-12T08:48:30.997Z,55.25
2019-01-12T08:53:25.279Z,52.96
2019-01-12T08:58:16.859Z,52.96
2019-01-12T09:03:07.425Z,53.74
2019-01-12T09:08:03.526Z,54.21
2019-01-12T09:13:02.364Z,53.08
2019-01-12T09:17:57.268Z,54.11
2019-01-12T09:23:12.528Z,52.81
2019-01-12T09:28:33.542Z,53.48
2019-01-12T09:34:14.198Z,52.31
2019-01-12T09:39:40.579Z,50.82
2019-01-12T09:45:04.624Z,50.40
2019-01-12T09:50:26.276Z,52.40
2019-01-12T09:55:44.176Z,53.33
2019-01-12T10:01:14.714Z,52.57
2019-01-12T10:06:36.520Z,51.76
2019-01-12T10:12:00.175Z,51.37
2019-01-12T10:17:28.451Z,50.97
2019-01-12T10:22:54.378Z,48.86
2019-01-12T10:28:22.028Z,49.38
2019-01-12T10:33:45.145Z,49.49
2019-01-12T10:39:04.233Z,49.86
2019-01-12T10:44:25.734Z,49.48
2019-01-12T10:49:47.266Z,49.98
2019-01-12T10:54:41.656Z,49.83
2019-01-12T10:59:32.714Z,48.84
2019-01-12T11:04:23.586Z,47.71
2019-01-12T11:09:15.443Z,48.49
2019-01-12T11:14:06.695Z,47.45
2019-01-12T11:18:58.026Z,47.98
2019-01-12T11:23:49.117Z,48.23
2019-01-12T11:28:40.202Z,47.34
2019-01-12T11:33:31.253Z,46.98
2019-01-12T11:38:24.326Z,46.76
2019-01-12T11:43:14.960Z,46.83
2019-01-12T11:48:07.550Z,46.40
2019-01-12T11:52:58.650Z,46.91
2019-01-12T11:57:50.250Z,47.22
2019-01-12T12:02:44.097Z,47.22
2019-01-12T12:07:36.210Z,47.71
2019-01-12T12:12:27.797Z,47.71
2019-01-12T12:17:19.628Z,47.24
2019-01-12T12:22:10.497Z,46.14
2019-01-12T12:27:01.831Z,44.95
2019-01-12T12:31:52.651Z,44.35
2019-01-12T12:36:43.148Z,45.95
2019-01-12T12:41:34.177Z,45.52
2019-01-12T12:46:25.310Z,46.99
2019-01-12T12:51:17.647Z,46.45
2019-01-12T12:56:09.274Z,46.48
2019-01-12T13:00:59.633Z,48.71
2019-01-12T13:05:51.660Z,46.54
2019-01-12T13:10:42.698Z,48.11
2019-01-12T13:15:33.300Z,48.77
2019-01-12T13:20:26.129Z,48.20
2019-01-12T13:25:17.020Z,47.21
2019-01-12T13:30:11.354Z,48.41
2019-01-12T13:35:03.205Z,49.05
2019-01-12T13:39:55.013Z,48.22
2019-01-12T13:44:49.245Z,47.91
2019-01-12T13:50:56.286Z,48.69
2019-01-12T13:56:34.768Z,49.13
2019-01-12T14:01:32.278Z,50.33
2019-01-12T14:06:37.958Z,50.34
2019-01-12T14:11:33.298Z,50.56
2019-01-12T14:16:24.678Z,51.25
2019-01-12T14:21:16.030Z,50.99
2019-01-12T14:26:07.612Z,51.35
2019-01-12T14:30:58.152Z,51.83
2019-01-12T14:35:48.725Z,52.04
2019-01-12T14:40:40.691Z,52.28
2019-01-12T14:45:39.330Z,52.97
2019-01-12T14:50:33.685Z,53.56
2019-01-12T14:55:25.068Z,53.73
2019-01-12T15:00:18.940Z,54.63
2019-01-12T15:05:11.527Z,54.01
2019-01-12T15:10:03.705Z,54.21
2019-01-12T15:14:55.213Z,54.52
2019-01-12T15:20:11.499Z,54.59
2019-01-12T15:25:30.504Z,54.73
2019-01-12T15:31:08.179Z,53.98
2019-01-12T15:36:27.478Z,54.41
2019-01-12T15:41:54.680Z,53.79
2019-01-12T15:47:19.901Z,54.07
2019-01-12T15:52:40.336Z,54.07
2019-01-12T15:58:00.322Z,54.82
2019-01-12T16:03:24.612Z,55.52
2019-01-12T16:08:52.368Z,53.56
2019-01-12T16:14:12.158Z,53.21
2019-01-12T16:19:33.959Z,55.11
2019-01-12T16:24:53.188Z,54.72
2019-01-12T16:30:13.960Z,55.00
2019-01-12T16:35:33.250Z,55.37
2019-01-12T16:40:54.012Z,55.37
2019-01-12T16:46:14.275Z,57.31
2019-01-12T16:51:33.643Z,57.31
2019-01-12T16:56:55.004Z,56.66
2019-01-12T17:02:17.479Z,54.97
2019-01-12T17:07:15.242Z,54.97
2019-01-12T17:12:05.835Z,55.01
2019-01-12T17:16:57.671Z,54.79
2019-01-12T17:21:48.480Z,54.24
2019-01-12T17:26:40.258Z,55.38
2019-01-12T17:31:33.764Z,54.68
2019-01-12T17:36:25.841Z,55.84
2019-01-12T17:41:18.195Z,55.84
2019-01-12T17:46:13.579Z,55.22
2019-01-12T17:51:04.426Z,54.74
2019-01-12T17:56:00.632Z,54.74
2019-01-12T18:00:57.413Z,53.86
2019-01-12T18:05:50.743Z,55.20
2019-01-12T18:10:41.649Z,54.72
2019-01-12T18:15:32.879Z,54.63
2019-01-12T18:20:24.977Z,54.47
2019-01-12T18:25:20.820Z,54.77
2019-01-12T18:30:15.212Z,54.48
2019-01-12T18:35:06.509Z,54.88
2019-01-12T18:39:57.189Z,54.97
2019-01-12T18:44:51.022Z,54.97
2019-01-12T18:50:06.478Z,55.06
2019-01-12T18:55:28.275Z,55.70
2019-01-12T19:00:37.172Z,54.92
2019-01-12T19:05:44.495Z,55.28
2019-01-12T19:10:41.688Z,54.87
2019-01-12T19:16:05.188Z,54.87
2019-01-12T19:21:02.761Z,54.96
2019-01-12T19:26:02.513Z,55.17
2019-01-12T19:31:00.886Z,55.82
2019-01-12T19:35:58.532Z,55.82
2019-01-12T19:40:49.585Z,56.42
2019-01-12T19:45:43.234Z,57.17
2019-01-12T19:50:37.847Z,56.02
2019-01-12T19:55:31.505Z,56.28
2019-01-12T20:00:36.312Z,55.83
2019-01-12T20:05:29.434Z,56.40
2019-01-12T20:10:20.687Z,57.16
2019-01-12T20:15:24.334Z,60.41
2019-01-12T20:20:16.871Z,60.41
2019-01-12T20:25:08.709Z,58.54
2019-01-12T20:30:01.287Z,57.25
2019-01-12T20:35:40.001Z,58.58
2019-01-12T20:41:07.707Z,58.65
2019-01-12T20:46:39.216Z,58.03
2019-01-12T20:51:57.259Z,58.35
2019-01-12T20:57:20.470Z,59.03
2019-01-12T21:02:55.584Z,59.34
2019-01-12T21:08:22.007Z,59.26
2019-01-12T21:14:06.582Z,61.86
2019-01-12T21:18:58.680Z,59.78
2019-01-12T21:23:51.015Z,60.05
2019-01-12T21:28:42.348Z,59.60
2019-01-12T21:33:33.193Z,59.46
2019-01-12T21:38:25.948Z,59.95
2019-01-12T21:43:18.926Z,59.38
2019-01-12T21:48:10.741Z,60.39
2019-01-12T21:53:08.738Z,60.23
2019-01-12T21:58:02.868Z,60.46
2019-01-12T22:02:54.858Z,61.09
2019-01-12T22:07:47.062Z,60.86
2019-01-12T22:12:38.630Z,61.90
2019-01-12T22:17:54.089Z,62.38
2019-01-12T22:23:19.008Z,61.61
2019-01-12T22:28:10.000Z,61.85
2019-01-12T22:33:00.843Z,60.10
2019-01-12T22:37:51.611Z,60.66
2019-01-12T22:42:41.965Z,60.08
2019-01-12T22:47:33.027Z,60.38
2019-01-12T22:52:27.741Z,60.44
2019-01-12T22:57:19.012Z,60.55
2019-01-12T23:02:12.147Z,60.11
2019-01-12T23:07:03.774Z,60.64
2019-01-12T23:11:54.783Z,60.69
2019-01-12T23:16:45.361Z,61.04
2019-01-12T23:21:36.968Z,61.45
2019-01-12T23:26:29.543Z,60.83
2019-01-12T23:31:21.676Z,62.47
2019-01-12T23:36:15.018Z,61.99
2019-01-12T23:41:13.300Z,62.21
2019-01-12T23:46:10.502Z,60.40
2019-01-12T23:51:14.960Z,63.11
2019-01-12T23:56:17.644Z,63.04
